createdAt,value
2018-11-04T00:01:27.561Z,96967.04
2018-11-04T00:03:57.520Z,96967.01
2018-11-04T00:06:27.591Z,96969.27
2018-11-04T00:08:57.475Z,96961.77
2018-11-04T00:11:27.546Z,96962.27
2018-11-04T00:13:57.505Z,96956.05
2018-11-04T00:16:27.503Z,96960.53
2018-11-04T00:18:57.566Z,96958.30
2018-11-04T00:21:27.446Z,96953.67
2018-11-04T00:23:57.620Z,96945.94
2018-11-04T00:26:27.634Z,96945.64
2018-11-04T00:28:57.626Z,96950.72
2018-11-04T00:31:27.496Z,96949.08
2018-11-04T00:33:57.795Z,96949.04
2018-11-04T00:36:27.602Z,96951.80
2018-11-04T00:38:57.565Z,96945.81
2018-11-04T00:41:27.622Z,96949.77
2018-11-04T00:43:57.663Z,96942.80
2018-11-04T00:46:27.590Z,96949.77
2018-11-04T00:48:57.598Z,96944.50
2018-11-04T00:51:27.529Z,96941.48
2018-11-04T00:53:57.562Z,96938.88
2018-11-04T00:56:27.559Z,96939.75
2018-11-04T00:58:57.546Z,96933.95
2018-11-04T01:01:27.604Z,96933.16
2018-11-04T01:03:57.748Z,96928.20
2018-11-04T01:06:27.639Z,96923.34
2018-11-04T01:08:57.691Z,96917.53
2018-11-04T01:11:27.738Z,96911.38
2018-11-04T01:13:58.518Z,96911.67
2018-11-04T01:16:27.679Z,96911.06
2018-11-04T01:18:57.638Z,96912.84
2018-11-04T01:21:27.631Z,96905.63
2018-11-04T01:23:57.666Z,96900.51
2018-11-04T01:26:27.718Z,96895.03
2018-11-04T01:28:57.755Z,96886.94
2018-11-04T01:31:27.635Z,96888.76
2018-11-04T01:33:57.746Z,96890.28
2018-11-04T01:36:27.654Z,96877.77
2018-11-04T01:38:57.592Z,96872.08
2018-11-04T01:41:27.696Z,96861.64
2018-11-04T01:43:57.690Z,96867.83
2018-11-04T01:46:27.663Z,96859.63
2018-11-04T01:48:57.731Z,96858.30
2018-11-04T01:51:27.834Z,96855.05
2018-11-04T01:53:57.759Z,96851.22
2018-11-04T01:56:27.686Z,96846.31
2018-11-04T01:58:57.723Z,96852.70
2018-11-04T02:01:27.718Z,96844.91
2018-11-04T02:03:57.890Z,96843.80
2018-11-04T02:06:27.911Z,96841.73
2018-11-04T02:08:57.898Z,96841.45
2018-11-04T02:11:27.816Z,96838.28
2018-11-04T02:13:57.682Z,96838.64
2018-11-04T02:16:27.791Z,96835.48
2018-11-04T02:18:57.731Z,96832.50
2018-11-04T02:21:27.759Z,96832.01
2018-11-04T02:23:57.933Z,96825.20
2018-11-04T02:26:27.794Z,96811.53
2018-11-04T02:28:57.714Z,96806.73
2018-11-04T02:31:27.881Z,96800.56
2018-11-04T02:33:57.842Z,96806.25
2018-11-04T02:36:27.804Z,96798.95
2018-11-04T02:38:57.755Z,96802.67
2018-11-04T02:41:27.770Z,96806.77
2018-11-04T02:43:57.850Z,96811.11
2018-11-04T02:46:27.810Z,96813.88
2018-11-04T02:48:57.884Z,96815.07
2018-11-04T02:51:27.998Z,96811.95
2018-11-04T02:53:57.746Z,96821.38
2018-11-04T02:56:27.927Z,96811.45
2018-11-04T02:58:57.787Z,96809.19
2018-11-04T03:01:27.811Z,96804.77
2018-11-04T03:03:57.832Z,96800.08
2018-11-04T03:06:27.847Z,96795.33
2018-11-04T03:08:57.850Z,96790.72
2018-11-04T03:11:27.886Z,96789.59
2018-11-04T03:13:58.024Z,96784.86
2018-11-04T03:16:27.814Z,96779.72
2018-11-04T03:18:57.818Z,96775.42
2018-11-04T03:21:27.859Z,96784.13
2018-11-04T03:23:57.915Z,96782.23
2018-11-04T03:26:28.147Z,96779.92
2018-11-04T03:28:57.895Z,96776.09
2018-11-04T03:31:27.972Z,96780.38
2018-11-04T03:33:57.895Z,96781.11
2018-11-04T03:36:27.860Z,96785.45
2018-11-04T03:38:58.314Z,96779.91
2018-11-04T03:41:27.960Z,96768.51
2018-11-04T03:43:57.861Z,96771.47
2018-11-04T03:46:27.951Z,96763.02
2018-11-04T03:48:57.928Z,96760.43
2018-11-04T03:51:27.851Z,96765.20
2018-11-04T03:53:57.867Z,96763.47
2018-11-04T03:56:28.150Z,96756.75
2018-11-04T03:58:57.942Z,96757.45
2018-11-04T04:01:28.134Z,96757.66
2018-11-04T04:03:57.926Z,96766.77
2018-11-04T04:06:28.048Z,96767.67
2018-11-04T04:08:57.948Z,96759.26
2018-11-04T04:11:27.900Z,96763.80
2018-11-04T04:13:57.942Z,96767.13
2018-11-04T04:16:27.954Z,96761.64
2018-11-04T04:18:57.928Z,96758.67
2018-11-04T04:21:27.951Z,96753.80
2018-11-04T04:23:58.020Z,96746.75
2018-11-04T04:26:27.975Z,96746.05
2018-11-04T04:28:58.094Z,96739.45
2018-11-04T04:31:27.958Z,96740.08
2018-11-04T04:33:58.036Z,96740.27
2018-11-04T04:36:28.063Z,96731.82
2018-11-04T04:38:57.959Z,96739.23
2018-11-04T04:41:28.300Z,96737.30
2018-11-04T04:43:57.999Z,96733.94
2018-11-04T04:46:27.973Z,96732.16
2018-11-04T04:48:58.074Z,96728.34
2018-11-04T04:51:27.994Z,96728.26
2018-11-04T04:53:57.983Z,96726.05
2018-11-04T04:56:28.095Z,96724.19
2018-11-04T04:58:58.055Z,96715.06
2018-11-04T05:01:28.024Z,96717.23
2018-11-04T05:03:58.100Z,96712.38
2018-11-04T05:06:28.214Z,96706.39
2018-11-04T05:08:58.075Z,96707.28
2018-11-04T05:11:28.027Z,96701.19
2018-11-04T05:13:58.108Z,96704.93
2018-11-04T05:16:28.140Z,96704.17
2018-11-04T05:18:58.059Z,96707.28
2018-11-04T05:21:28.066Z,96711.66
2018-11-04T05:23:58.067Z,96717.44
2018-11-04T05:26:28.104Z,96715.28
2018-11-04T05:28:58.102Z,96717.93
2018-11-04T05:31:28.171Z,96711.11
2018-11-04T05:33:58.264Z,96707.15
2018-11-04T05:36:28.183Z,96715.48
2018-11-04T05:38:58.143Z,96706.20
2018-11-04T05:41:28.144Z,96701.27
2018-11-04T05:43:58.095Z,96694.53
2018-11-04T05:46:28.122Z,96691.81
2018-11-04T05:48:58.077Z,96694.23
2018-11-04T05:51:28.146Z,96693.77
2018-11-04T05:53:58.235Z,96686.04
2018-11-04T05:56:28.215Z,96688.50
2018-11-04T05:58:58.170Z,96681.53
2018-11-04T06:01:28.119Z,96680.77
2018-11-04T06:03:58.208Z,96682.11
2018-11-04T06:06:28.087Z,96677.23
2018-11-04T06:08:58.116Z,96681.03
2018-11-04T06:11:28.203Z,96688.50
2018-11-04T06:13:58.223Z,96688.63
2018-11-04T06:16:28.197Z,96692.02
2018-11-04T06:18:58.151Z,96691.19
2018-11-04T06:21:28.151Z,96688.42
2018-11-04T06:23:58.343Z,96688.63
2018-11-04T06:26:28.264Z,96690.92
2018-11-04T06:28:58.231Z,96697.02
2018-11-04T06:31:28.248Z,96692.91
2018-11-04T06:33:58.211Z,96704.46
2018-11-04T06:36:28.226Z,96708.00
2018-11-04T06:38:58.243Z,96709.03
2018-11-04T06:41:28.835Z,96707.94
2018-11-04T06:43:58.282Z,96714.80
2018-11-04T06:46:28.180Z,96717.58
2018-11-04T06:48:58.483Z,96717.16
2018-11-04T06:51:29.991Z,96714.02
2018-11-04T06:53:59.152Z,96710.70
2018-11-04T06:56:28.302Z,96712.91
2018-11-04T06:58:58.238Z,96718.05
2018-11-04T07:01:28.235Z,96708.63
2018-11-04T07:04:16.263Z,96706.52
2018-11-04T07:06:45.499Z,96697.92
2018-11-04T07:09:15.550Z,96702.48
2018-11-04T07:11:45.443Z,96705.91
2018-11-04T07:14:14.586Z,96695.97
2018-11-04T07:16:44.362Z,96700.42
2018-11-04T07:19:13.870Z,96700.08
2018-11-04T07:21:43.014Z,96701.53
2018-11-04T07:24:12.182Z,96701.95
2018-11-04T07:26:41.489Z,96703.35
2018-11-04T07:29:10.867Z,96706.10
2018-11-04T07:31:40.013Z,96712.24
2018-11-04T07:34:09.210Z,96724.80
2018-11-04T07:36:38.450Z,96724.44
2018-11-04T07:39:11.402Z,96722.43
2018-11-04T07:41:43.385Z,96711.95
2018-11-04T07:44:12.780Z,96706.95
2018-11-04T07:46:41.891Z,96707.42
2018-11-04T07:49:11.111Z,96713.14
2018-11-04T07:51:40.264Z,96705.38
2018-11-04T07:54:09.386Z,96702.80
2018-11-04T07:56:38.533Z,96694.17
2018-11-04T07:59:14.460Z,96698.08
2018-11-04T08:01:43.854Z,96688.95
2018-11-04T08:04:13.069Z,96693.41
2018-11-04T08:06:46.576Z,96691.27
2018-11-04T08:09:23.948Z,96690.91
2018-11-04T08:11:53.854Z,96695.81
2018-11-04T08:14:23.031Z,96683.96
2018-11-04T08:16:52.158Z,96696.80
2018-11-04T08:19:21.326Z,96696.88
2018-11-04T08:21:50.471Z,96685.14
2018-11-04T08:24:19.745Z,96673.77
2018-11-04T08:26:48.894Z,96679.27
2018-11-04T08:29:18.142Z,96673.20
2018-11-04T08:31:47.441Z,96678.70
2018-11-04T08:34:16.660Z,96691.73
2018-11-04T08:36:45.796Z,96686.75
2018-11-04T08:39:14.955Z,96686.81
2018-11-04T08:41:51.204Z,96675.44
2018-11-04T08:44:25.676Z,96671.70
2018-11-04T08:46:54.926Z,96659.19
2018-11-04T08:49:24.074Z,96661.32
2018-11-04T08:51:53.235Z,96666.96
2018-11-04T08:54:22.400Z,96674.59
2018-11-04T08:56:51.576Z,96689.39
2018-11-04T08:59:20.747Z,96684.46
2018-11-04T09:01:49.902Z,96671.66
2018-11-04T09:04:19.046Z,96657.44
2018-11-04T09:06:48.205Z,96653.13
2018-11-04T09:09:17.404Z,96657.66
2018-11-04T09:11:46.576Z,96651.45
2018-11-04T09:14:15.753Z,96643.54
2018-11-04T09:16:52.125Z,96637.73
2018-11-04T09:19:21.277Z,96637.38
2018-11-04T09:21:51.041Z,96642.51
2018-11-04T09:24:20.119Z,96645.68
2018-11-04T09:26:49.272Z,96653.20
2018-11-04T09:29:18.464Z,96649.85
2018-11-04T09:31:47.559Z,96642.44
2018-11-04T09:34:16.718Z,96635.19
2018-11-04T09:36:47.576Z,96631.52
2018-11-04T09:39:16.784Z,96629.74
2018-11-04T09:41:45.922Z,96638.94
2018-11-04T09:44:15.322Z,96629.02
2018-11-04T09:46:44.459Z,96622.27
2018-11-04T09:49:13.831Z,96620.95
2018-11-04T09:51:42.987Z,96620.02
2018-11-04T09:54:12.123Z,96620.02
2018-11-04T09:56:41.344Z,96618.84
2018-11-04T09:59:10.442Z,96616.42
2018-11-04T10:01:39.582Z,96615.02
2018-11-04T10:04:08.710Z,96616.41
2018-11-04T10:06:37.846Z,96603.66
2018-11-04T10:09:09.480Z,96604.00
2018-11-04T10:11:38.666Z,96603.28
2018-11-04T10:14:08.406Z,96605.98
2018-11-04T10:16:38.037Z,96602.03
2018-11-04T10:19:07.372Z,96591.38
2018-11-04T10:21:36.444Z,96589.76
2018-11-04T10:24:06.000Z,96581.56
2018-11-04T10:26:35.243Z,96577.66
2018-11-04T10:29:04.479Z,96573.11
2018-11-04T10:31:33.673Z,96563.77
2018-11-04T10:34:02.851Z,96560.62
2018-11-04T10:36:32.024Z,96563.64
2018-11-04T10:39:01.183Z,96563.33
2018-11-04T10:41:30.345Z,96556.78
2018-11-04T10:43:59.690Z,96542.50
2018-11-04T10:46:28.864Z,96548.41
2018-11-04T10:48:58.674Z,96544.56
2018-11-04T10:51:28.695Z,96545.48
2018-11-04T10:53:58.679Z,96551.21
2018-11-04T10:56:28.732Z,96541.80
2018-11-04T10:58:58.766Z,96540.77
2018-11-04T11:01:28.879Z,96546.92
2018-11-04T11:03:58.943Z,96541.48
2018-11-04T11:06:28.763Z,96528.58
2018-11-04T11:08:58.804Z,96537.19
2018-11-04T11:11:28.844Z,96532.37
2018-11-04T11:13:58.851Z,96536.57
2018-11-04T11:16:28.779Z,96539.27
2018-11-04T11:18:58.790Z,96526.84
2018-11-04T11:21:28.762Z,96527.61
2018-11-04T11:23:58.871Z,96523.36
2018-11-04T11:26:28.830Z,96516.42
2018-11-04T11:28:58.831Z,96517.09
2018-11-04T11:31:28.770Z,96516.63
2018-11-04T11:33:58.740Z,96507.53
2018-11-04T11:36:28.821Z,96500.24
2018-11-04T11:38:58.745Z,96496.84
2018-11-04T11:41:28.859Z,96492.00
2018-11-04T11:43:58.865Z,96486.26
2018-11-04T11:48:55.635Z,96499.95
2018-11-04T11:51:24.850Z,96488.85
2018-11-04T11:53:54.073Z,96489.19
2018-11-04T11:56:23.272Z,96486.85
2018-11-04T11:58:52.398Z,96478.44
2018-11-04T12:01:21.595Z,96481.20
2018-11-04T12:03:50.756Z,96484.44
2018-11-04T12:06:19.911Z,96482.63
2018-11-04T12:08:49.136Z,96475.78
2018-11-04T12:11:18.307Z,96459.28
2018-11-04T12:13:47.721Z,96467.86
2018-11-04T12:16:17.160Z,96468.55
2018-11-04T12:18:46.404Z,96451.14
2018-11-04T12:21:15.565Z,96446.54
2018-11-04T12:23:44.823Z,96436.59
2018-11-04T12:26:13.866Z,96441.70
2018-11-04T12:28:43.028Z,96446.59
2018-11-04T12:31:12.201Z,96437.97
2018-11-04T12:33:41.340Z,96440.75
2018-11-04T12:36:10.535Z,96428.59
2018-11-04T12:38:39.716Z,96430.50
2018-11-04T12:41:08.863Z,96430.83
2018-11-04T12:43:38.445Z,96428.08
2018-11-04T12:46:07.587Z,96428.41
2018-11-04T12:48:36.748Z,96430.09
2018-11-04T12:51:06.100Z,96421.19
2018-11-04T12:53:35.248Z,96414.91
2018-11-04T12:56:04.395Z,96415.01
2018-11-04T12:58:33.631Z,96401.45
2018-11-04T13:01:02.976Z,96391.56
2018-11-04T13:03:32.282Z,96392.06
2018-11-04T13:06:01.535Z,96395.12
2018-11-04T13:08:30.782Z,96386.17
2018-11-04T13:10:59.925Z,96386.95
2018-11-04T13:13:29.127Z,96386.45
2018-11-04T13:15:59.118Z,96387.31
2018-11-04T13:18:29.190Z,96374.19
2018-11-04T13:20:59.277Z,96377.02
2018-11-04T13:23:29.274Z,96367.44
2018-11-04T13:25:59.044Z,96367.16
2018-11-04T13:28:29.251Z,96373.53
2018-11-04T13:30:59.067Z,96366.52
2018-11-04T13:33:29.095Z,96373.31
2018-11-04T13:35:59.164Z,96367.64
2018-11-04T13:38:29.195Z,96367.23
2018-11-04T13:40:59.085Z,96359.13
2018-11-04T13:43:29.102Z,96355.48
2018-11-04T13:45:59.232Z,96361.87
2018-11-04T13:48:29.114Z,96361.95
2018-11-04T13:50:59.210Z,96359.94
2018-11-04T13:53:29.228Z,96350.55
2018-11-04T13:55:59.143Z,96352.34
2018-11-04T13:58:29.214Z,96358.21
2018-11-04T14:00:59.190Z,96361.48
2018-11-04T14:03:29.194Z,96358.13
2018-11-04T14:05:59.230Z,96367.33
2018-11-04T14:08:29.226Z,96367.05
2018-11-04T14:10:59.230Z,96374.25
2018-11-04T14:13:29.446Z,96373.44
2018-11-04T14:15:59.283Z,96367.82
2018-11-04T14:18:29.205Z,96359.71
2018-11-04T14:20:59.243Z,96362.70
2018-11-04T14:23:29.360Z,96361.03
2018-11-04T14:25:59.372Z,96354.19
2018-11-04T14:28:29.307Z,96345.88
2018-11-04T14:30:59.399Z,96354.37
2018-11-04T14:33:29.306Z,96351.38
2018-11-04T14:35:59.253Z,96346.84
2018-11-04T14:38:29.464Z,96336.83
2018-11-04T14:40:59.302Z,96328.95
2018-11-04T14:43:29.421Z,96326.66
2018-11-04T14:45:59.384Z,96328.91
2018-11-04T14:48:29.367Z,96322.75
2018-11-04T14:50:59.578Z,96319.70
2018-11-04T14:53:29.403Z,96324.71
2018-11-04T14:55:59.391Z,96317.00
2018-11-04T14:58:29.296Z,96308.21
2018-11-04T15:00:59.820Z,96307.13
2018-11-04T15:03:29.395Z,96298.91
2018-11-04T15:05:59.276Z,96297.16
2018-11-04T15:08:29.476Z,96303.69
2018-11-04T15:10:59.441Z,96310.12
2018-11-04T15:13:29.431Z,96313.02
2018-11-04T15:15:59.403Z,96309.44
2018-11-04T15:18:29.410Z,96308.39
2018-11-04T15:20:59.400Z,96305.37
2018-11-04T15:23:29.350Z,96301.41
2018-11-04T15:25:59.371Z,96298.36
2018-11-04T15:28:29.444Z,96294.02
2018-11-04T15:30:59.401Z,96293.84
2018-11-04T15:33:29.343Z,96291.24
2018-11-04T15:35:59.336Z,96290.97
2018-11-04T15:38:29.465Z,96300.67
2018-11-04T15:40:59.547Z,96293.53
2018-11-04T15:43:29.588Z,96287.51
2018-11-04T15:45:59.847Z,96288.24
2018-11-04T15:50:06.524Z,96292.70
2018-11-04T15:52:35.779Z,96287.30
2018-11-04T15:55:05.105Z,96295.27
2018-11-04T15:57:34.207Z,96295.86
2018-11-04T16:00:03.414Z,96287.98
2018-11-04T16:02:32.704Z,96292.51
2018-11-04T16:05:01.866Z,96288.50
2018-11-04T16:07:31.023Z,96291.77
2018-11-04T16:10:00.170Z,96291.14
2018-11-04T16:12:29.399Z,96289.09
2018-11-04T16:14:58.685Z,96284.03
2018-11-04T16:17:27.903Z,96287.71
2018-11-04T16:19:57.112Z,96287.17
2018-11-04T16:22:26.243Z,96289.48
2018-11-04T16:24:55.416Z,96289.26
2018-11-04T16:27:24.619Z,96286.44
2018-11-04T16:29:53.898Z,96277.14
2018-11-04T16:32:23.035Z,96288.17
2018-11-04T16:34:52.183Z,96292.13
2018-11-04T16:37:21.388Z,96287.94
2018-11-04T16:39:50.547Z,96289.22
2018-11-04T16:42:19.810Z,96292.27
2018-11-04T16:44:49.202Z,96273.91
2018-11-04T16:47:18.368Z,96274.53
2018-11-04T16:49:47.512Z,96272.00
2018-11-04T16:52:16.655Z,96265.69
2018-11-04T16:54:45.814Z,96266.73
2018-11-04T16:57:14.938Z,96262.83
2018-11-04T16:59:44.193Z,96269.98
2018-11-04T17:02:13.348Z,96274.30
2018-11-04T17:04:42.593Z,96275.09
2018-11-04T17:07:11.659Z,96272.94
2018-11-04T17:09:40.823Z,96270.62
2018-11-04T17:12:09.955Z,96266.20
2018-11-04T17:14:39.597Z,96264.42
2018-11-04T17:17:08.738Z,96260.91
2018-11-04T17:19:38.054Z,96262.00
2018-11-04T17:22:07.286Z,96263.69
2018-11-04T17:24:36.692Z,96256.83
2018-11-04T17:27:05.944Z,96251.05
2018-11-04T17:29:35.130Z,96248.85
2018-11-04T17:32:04.458Z,96248.07
2018-11-04T17:34:33.827Z,96251.22
2018-11-04T17:37:03.220Z,96247.36
2018-11-04T17:39:33.229Z,96245.94
2018-11-04T17:42:03.176Z,96250.94
2018-11-04T17:44:33.291Z,96255.62
2018-11-04T17:47:03.239Z,96247.70
2018-11-04T17:49:33.409Z,96253.16
2018-11-04T17:52:03.185Z,96253.47
2018-11-04T17:54:33.335Z,96240.78
2018-11-04T17:57:03.191Z,96231.81
2018-11-04T17:59:33.348Z,96241.92
2018-11-04T18:02:03.268Z,96236.14
2018-11-04T18:04:33.212Z,96235.22
2018-11-04T18:07:03.250Z,96237.50
2018-11-04T18:09:33.243Z,96236.94
2018-11-04T18:12:03.296Z,96234.45
2018-11-04T18:14:33.215Z,96234.68
2018-11-04T18:17:03.387Z,96234.34
2018-11-04T18:19:33.232Z,96229.22
2018-11-04T18:22:03.248Z,96237.20
2018-11-04T18:24:33.346Z,96240.27
2018-11-04T18:27:03.306Z,96238.98
2018-11-04T18:29:33.277Z,96228.60
2018-11-04T18:32:03.348Z,96233.70
2018-11-04T18:34:33.472Z,96244.05
2018-11-04T18:37:03.348Z,96239.58
2018-11-04T18:39:33.331Z,96238.59
2018-11-04T18:42:03.348Z,96235.62
2018-11-04T18:44:33.407Z,96235.67
2018-11-04T18:47:03.394Z,96237.22
2018-11-04T18:49:33.368Z,96230.34
2018-11-04T18:52:03.523Z,96217.81
2018-11-04T18:54:33.446Z,96216.55
2018-11-04T18:57:03.490Z,96211.75
2018-11-04T18:59:33.431Z,96211.86
2018-11-04T19:02:03.478Z,96216.14
2018-11-04T19:04:33.486Z,96215.11
2018-11-04T19:07:03.499Z,96217.02
2018-11-04T19:09:33.457Z,96212.23
2018-11-04T19:12:03.419Z,96210.97
2018-11-04T19:14:33.398Z,96210.36
2018-11-04T19:17:03.590Z,96221.09
2018-11-04T19:19:33.511Z,96209.27
2018-11-04T19:22:03.712Z,96213.73
2018-11-04T19:24:33.502Z,96210.64
2018-11-04T19:27:03.482Z,96214.31
2018-11-04T19:29:33.506Z,96215.92
2018-11-04T19:32:03.526Z,96215.69
2018-11-04T19:34:33.450Z,96204.09
2018-11-04T19:37:03.576Z,96195.15
2018-11-04T19:39:33.611Z,96196.87
2018-11-04T19:42:03.510Z,96206.80
2018-11-04T19:44:33.574Z,96213.96
2018-11-04T19:52:27.374Z,96211.72
2018-11-04T19:54:56.523Z,96205.48
2018-11-04T19:57:29.344Z,96197.06
2018-11-04T19:59:59.720Z,96181.05
2018-11-04T20:02:29.708Z,96176.84
2018-11-04T20:04:59.618Z,96188.00
2018-11-04T20:07:28.988Z,96191.78
2018-11-04T20:09:58.148Z,96177.20
2018-11-04T20:12:32.594Z,96180.42
2018-11-04T20:15:01.756Z,96178.74
2018-11-04T20:17:30.972Z,96177.14
2018-11-04T20:20:05.466Z,96178.47
2018-11-04T20:22:34.507Z,96176.46
2018-11-04T20:25:09.072Z,96180.47
2018-11-04T20:27:38.232Z,96177.77
2018-11-04T20:30:09.236Z,96180.65
2018-11-04T20:32:43.667Z,96173.92
2018-11-04T20:35:13.430Z,96169.80
2018-11-04T20:37:42.930Z,96165.44
2018-11-04T20:40:17.395Z,96162.52
2018-11-04T20:42:46.583Z,96169.21
2018-11-04T20:45:15.758Z,96169.30
2018-11-04T20:47:50.078Z,96170.67
2018-11-04T20:50:24.619Z,96176.95
2018-11-04T20:52:53.850Z,96172.66
2018-11-04T20:55:22.999Z,96165.20
2018-11-04T20:57:54.578Z,96170.08
2018-11-04T21:00:23.676Z,96163.20
2018-11-04T21:02:52.822Z,96161.94
2018-11-04T21:05:22.112Z,96166.88
2018-11-04T21:07:51.288Z,96162.11
2018-11-04T21:10:20.507Z,96148.80
2018-11-04T21:12:49.935Z,96143.69
2018-11-04T21:15:19.079Z,96136.30
2018-11-04T21:17:48.319Z,96137.67
2018-11-04T21:20:17.458Z,96135.77
2018-11-04T21:22:46.636Z,96142.95
2018-11-04T21:25:15.835Z,96148.97
2018-11-04T21:27:45.055Z,96148.97
2018-11-04T21:30:14.422Z,96136.40
2018-11-04T21:32:44.022Z,96139.04
2018-11-04T21:35:13.159Z,96139.30
2018-11-04T21:37:42.327Z,96131.71
2018-11-04T21:40:11.519Z,96122.58
2018-11-04T21:42:40.862Z,96113.08
2018-11-04T21:45:12.000Z,96112.09
2018-11-04T21:47:41.350Z,96113.29
2018-11-04T21:50:11.179Z,96113.52
2018-11-04T21:52:40.554Z,96105.38
2018-11-04T21:55:12.034Z,96115.38
2018-11-04T21:57:42.352Z,96113.02
2018-11-04T22:00:13.299Z,96111.87
2018-11-04T22:02:42.925Z,96113.69
2018-11-04T22:05:12.300Z,96122.01
2018-11-04T22:07:42.411Z,96128.66
2018-11-04T22:10:13.859Z,96123.50
2018-11-04T22:12:44.120Z,96113.31
2018-11-04T22:15:13.403Z,96110.84
2018-11-04T22:17:42.876Z,96113.48
2018-11-04T22:20:13.154Z,96105.80
2018-11-04T22:22:42.300Z,96103.11
2018-11-04T22:25:11.815Z,96107.90
2018-11-04T22:27:40.994Z,96110.54
2018-11-04T22:30:11.469Z,96103.34
2018-11-04T22:32:40.648Z,96105.75
2018-11-04T22:35:11.388Z,96098.56
2018-11-04T22:37:40.535Z,96096.15
2018-11-04T22:40:11.102Z,96092.25
2018-11-04T22:42:40.902Z,96098.73
2018-11-04T22:45:11.352Z,96093.36
2018-11-04T22:47:41.273Z,96095.82
2018-11-04T22:50:14.754Z,96091.33
2018-11-04T22:52:44.211Z,96086.31
2018-11-04T22:55:14.184Z,96080.80
2018-11-04T22:57:43.890Z,96091.52
2018-11-04T23:00:18.319Z,96083.83
2018-11-04T23:02:48.767Z,96078.50
2018-11-04T23:05:23.388Z,96079.48
2018-11-04T23:07:52.971Z,96062.44
2018-11-04T23:10:22.254Z,96057.75
2018-11-04T23:12:52.462Z,96053.30
2018-11-04T23:15:21.628Z,96061.70
2018-11-04T23:17:51.009Z,96058.20
2018-11-04T23:20:20.163Z,96060.14
2018-11-04T23:22:49.314Z,96063.03
2018-11-04T23:25:18.471Z,96059.69
2018-11-04T23:27:47.612Z,96049.42
2018-11-04T23:30:17.999Z,96054.37
2018-11-04T23:32:47.671Z,96053.47
2018-11-04T23:35:16.833Z,96049.45
2018-11-04T23:37:46.008Z,96040.82
2018-11-04T23:40:15.215Z,96041.69
2018-11-04T23:42:44.354Z,96040.51
2018-11-04T23:45:14.567Z,96042.17
2018-11-04T23:47:44.003Z,96041.02
2018-11-04T23:50:14.754Z,96054.39
2018-11-04T23:52:44.287Z,96047.98
2018-11-04T23:55:14.181Z,96043.66
2018-11-04T23:57:43.352Z,96042.34
